sensor_id;sensor_type;location;lat;lon;timestamp;temperature;humidity
21580;DHT22;10951;59.656;9.666;2022-08-30T00:02:09;10.50;99.90
21580;DHT22;10951;59.656;9.666;2022-08-30T00:04:36;10.50;99.90
21580;DHT22;10951;59.656;9.666;2022-08-30T00:07:03;10.50;99.90
21580;DHT22;10951;59.656;9.666;2022-08-30T00:09:31;10.40;99.90
21580;DHT22;10951;59.656;9.666;2022-08-30T00:11:58;10.50;99.90
21580;DHT22;10951;59.656;9.666;2022-08-30T00:14:25;10.50;99.90
21580;DHT22;10951;59.656;9.666;2022-08-30T00:16:53;10.60;99.90
21580;DHT22;10951;59.656;9.666;2022-08-30T00:19:20;10.50;99.90
21580;DHT22;10951;59.656;9.666;2022-08-30T00:21:47;10.50;99.90
21580;DHT22;10951;59.656;9.666;2022-08-30T00:24:14;10.50;99.90
21580;DHT22;10951;59.656;9.666;2022-08-30T00:26:41;10.60;99.90
21580;DHT22;10951;59.656;9.666;2022-08-30T00:29:08;10.50;99.90
21580;DHT22;10951;59.656;9.666;2022-08-30T00:31:35;10.50;99.90
21580;DHT22;10951;59.656;9.666;2022-08-30T00:34:02;10.40;99.90
21580;DHT22;10951;59.656;9.666;2022-08-30T00:36:29;10.40;99.90
21580;DHT22;10951;59.656;9.666;2022-08-30T00:38:56;10.40;99.90
21580;DHT22;10951;59.656;9.666;2022-08-30T00:41:22;10.40;99.90
21580;DHT22;10951;59.656;9.666;2022-08-30T00:43:49;10.40;99.90
21580;DHT22;10951;59.656;9.666;2022-08-30T00:46:17;10.40;99.90
21580;DHT22;10951;59.656;9.666;2022-08-30T00:48:46;10.40;99.90
21580;DHT22;10951;59.656;9.666;2022-08-30T00:51:14;10.40;99.90
21580;DHT22;10951;59.656;9.666;2022-08-30T00:53:47;10.40;99.90
21580;DHT22;10951;59.656;9.666;2022-08-30T00:56:15;10.50;99.90
21580;DHT22;10951;59.656;9.666;2022-08-30T00:58:46;10.50;99.90
21580;DHT22;10951;59.656;9.666;2022-08-30T01:01:15;10.60;99.90
21580;DHT22;10951;59.656;9.666;2022-08-30T01:03:42;10.50;99.90
21580;DHT22;10951;59.656;9.666;2022-08-30T01:06:11;10.50;99.90
21580;DHT22;10951;59.656;9.666;2022-08-30T01:08:42;10.40;99.90
21580;DHT22;10951;59.656;9.666;2022-08-30T01:11:10;10.40;99.90
21580;DHT22;10951;59.656;9.666;2022-08-30T01:13:38;10.40;99.90
21580;DHT22;10951;59.656;9.666;2022-08-30T01:16:07;10.50;99.90
21580;DHT22;10951;59.656;9.666;2022-08-30T01:18:35;10.50;99.90
21580;DHT22;10951;59.656;9.666;2022-08-30T01:23:58;10.40;99.90
21580;DHT22;10951;59.656;9.666;2022-08-30T01:26:28;10.40;99.90
21580;DHT22;10951;59.656;9.666;2022-08-30T01:28:59;10.40;99.90
21580;DHT22;10951;59.656;9.666;2022-08-30T01:31:28;10.40;99.90
21580;DHT22;10951;59.656;9.666;2022-08-30T01:33:55;10.40;99.90
21580;DHT22;10951;59.656;9.666;2022-08-30T01:36:23;10.40;99.90
21580;DHT22;10951;59.656;9.666;2022-08-30T01:38:54;10.40;99.90
21580;DHT22;10951;59.656;9.666;2022-08-30T01:43:51;10.50;99.90
21580;DHT22;10951;59.656;9.666;2022-08-30T01:46:21;10.60;99.90
21580;DHT22;10951;59.656;9.666;2022-08-30T01:48:51;10.50;99.90
21580;DHT22;10951;59.656;9.666;2022-08-30T01:51:22;10.40;99.90
21580;DHT22;10951;59.656;9.666;2022-08-30T01:53:49;10.40;99.90
21580;DHT22;10951;59.656;9.666;2022-08-30T01:56:17;10.30;99.90
21580;DHT22;10951;59.656;9.666;2022-08-30T01:58:45;10.30;99.90
21580;DHT22;10951;59.656;9.666;2022-08-30T02:01:14;10.30;99.90
21580;DHT22;10951;59.656;9.666;2022-08-30T02:03:42;10.30;99.90
21580;DHT22;10951;59.656;9.666;2022-08-30T02:06:13;10.40;99.90
21580;DHT22;10951;59.656;9.666;2022-08-30T02:08:40;10.40;99.90
21580;DHT22;10951;59.656;9.666;2022-08-30T02:11:08;10.40;99.90
21580;DHT22;10951;59.656;9.666;2022-08-30T02:13:36;10.40;99.90
21580;DHT22;10951;59.656;9.666;2022-08-30T02:16:05;10.30;99.90
21580;DHT22;10951;59.656;9.666;2022-08-30T02:18:34;10.30;99.90
21580;DHT22;10951;59.656;9.666;2022-08-30T02:21:02;10.40;99.90
21580;DHT22;10951;59.656;9.666;2022-08-30T02:23:29;10.40;99.90
21580;DHT22;10951;59.656;9.666;2022-08-30T02:25:57;10.50;99.90
21580;DHT22;10951;59.656;9.666;2022-08-30T02:28:24;10.50;99.90
21580;DHT22;10951;59.656;9.666;2022-08-30T02:30:51;10.40;99.90
21580;DHT22;10951;59.656;9.666;2022-08-30T02:33:19;10.50;99.90
21580;DHT22;10951;59.656;9.666;2022-08-30T02:35:46;10.40;99.90
21580;DHT22;10951;59.656;9.666;2022-08-30T02:38:13;10.40;99.90
21580;DHT22;10951;59.656;9.666;2022-08-30T02:40:40;10.30;99.90
21580;DHT22;10951;59.656;9.666;2022-08-30T02:43:07;10.20;99.90
21580;DHT22;10951;59.656;9.666;2022-08-30T02:45:34;10.20;99.90
21580;DHT22;10951;59.656;9.666;2022-08-30T02:48:01;10.10;99.90
21580;DHT22;10951;59.656;9.666;2022-08-30T02:50:28;10.10;99.90
21580;DHT22;10951;59.656;9.666;2022-08-30T02:52:56;10.10;99.90
21580;DHT22;10951;59.656;9.666;2022-08-30T02:55:24;10.20;99.90
21580;DHT22;10951;59.656;9.666;2022-08-30T02:57:51;10.20;99.90
21580;DHT22;10951;59.656;9.666;2022-08-30T03:00:19;10.20;99.90
21580;DHT22;10951;59.656;9.666;2022-08-30T03:02:46;10.20;99.90
21580;DHT22;10951;59.656;9.666;2022-08-30T03:05:15;10.30;99.90
21580;DHT22;10951;59.656;9.666;2022-08-30T03:07:42;10.30;99.90
21580;DHT22;10951;59.656;9.666;2022-08-30T03:10:12;10.30;99.90
21580;DHT22;10951;59.656;9.666;2022-08-30T03:12:40;10.30;99.90
21580;DHT22;10951;59.656;9.666;2022-08-30T03:15:09;10.30;99.90
21580;DHT22;10951;59.656;9.666;2022-08-30T03:17:40;10.40;99.90
21580;DHT22;10951;59.656;9.666;2022-08-30T03:20:07;10.40;99.90
21580;DHT22;10951;59.656;9.666;2022-08-30T03:22:34;10.40;99.90
21580;DHT22;10951;59.656;9.666;2022-08-30T03:25:03;10.30;99.90
21580;DHT22;10951;59.656;9.666;2022-08-30T03:27:30;10.30;99.90
21580;DHT22;10951;59.656;9.666;2022-08-30T03:29:57;10.30;99.90
21580;DHT22;10951;59.656;9.666;2022-08-30T03:32:24;10.30;99.90
21580;DHT22;10951;59.656;9.666;2022-08-30T03:34:51;10.30;99.90
21580;DHT22;10951;59.656;9.666;2022-08-30T03:37:18;10.30;99.90
21580;DHT22;10951;59.656;9.666;2022-08-30T03:39:51;10.30;99.90
21580;DHT22;10951;59.656;9.666;2022-08-30T03:42:18;10.30;99.90
21580;DHT22;10951;59.656;9.666;2022-08-30T03:44:47;10.30;99.90
21580;DHT22;10951;59.656;9.666;2022-08-30T03:47:14;10.30;99.90
21580;DHT22;10951;59.656;9.666;2022-08-30T03:49:41;10.30;99.90
21580;DHT22;10951;59.656;9.666;2022-08-30T03:52:08;10.30;99.90
21580;DHT22;10951;59.656;9.666;2022-08-30T03:54:36;10.30;99.90
21580;DHT22;10951;59.656;9.666;2022-08-30T03:57:04;10.30;99.90
21580;DHT22;10951;59.656;9.666;2022-08-30T03:59:31;10.30;99.90
21580;DHT22;10951;59.656;9.666;2022-08-30T04:01:58;10.40;99.90
21580;DHT22;10951;59.656;9.666;2022-08-30T04:04:25;10.40;99.90
21580;DHT22;10951;59.656;9.666;2022-08-30T04:06:52;10.50;99.90
21580;DHT22;10951;59.656;9.666;2022-08-30T04:09:19;10.50;99.90
21580;DHT22;10951;59.656;9.666;2022-08-30T04:11:46;10.60;99.90
21580;DHT22;10951;59.656;9.666;2022-08-30T04:14:13;10.50;99.90
21580;DHT22;10951;59.656;9.666;2022-08-30T04:16:40;10.50;99.90
21580;DHT22;10951;59.656;9.666;2022-08-30T04:19:08;10.50;99.90
21580;DHT22;10951;59.656;9.666;2022-08-30T04:21:35;10.50;99.90
21580;DHT22;10951;59.656;9.666;2022-08-30T04:24:09;10.50;99.90
21580;DHT22;10951;59.656;9.666;2022-08-30T04:26:36;10.60;99.90
21580;DHT22;10951;59.656;9.666;2022-08-30T04:29:04;10.60;99.90
21580;DHT22;10951;59.656;9.666;2022-08-30T04:31:31;10.60;99.90
21580;DHT22;10951;59.656;9.666;2022-08-30T04:33:58;10.60;99.90
21580;DHT22;10951;59.656;9.666;2022-08-30T04:36:25;10.60;99.90
21580;DHT22;10951;59.656;9.666;2022-08-30T04:38:52;10.50;99.90
21580;DHT22;10951;59.656;9.666;2022-08-30T04:41:19;10.60;99.90
21580;DHT22;10951;59.656;9.666;2022-08-30T04:43:50;10.60;99.90
21580;DHT22;10951;59.656;9.666;2022-08-30T04:46:18;10.60;99.90
21580;DHT22;10951;59.656;9.666;2022-08-30T04:48:45;10.60;99.90
21580;DHT22;10951;59.656;9.666;2022-08-30T04:51:14;10.70;99.90
21580;DHT22;10951;59.656;9.666;2022-08-30T04:53:43;10.70;99.90
21580;DHT22;10951;59.656;9.666;2022-08-30T04:56:12;10.80;99.90
21580;DHT22;10951;59.656;9.666;2022-08-30T04:58:46;10.80;99.90
21580;DHT22;10951;59.656;9.666;2022-08-30T05:01:19;10.90;99.90
21580;DHT22;10951;59.656;9.666;2022-08-30T05:03:50;10.90;99.90
21580;DHT22;10951;59.656;9.666;2022-08-30T05:06:18;10.90;99.90
21580;DHT22;10951;59.656;9.666;2022-08-30T05:08:45;11.00;99.90
21580;DHT22;10951;59.656;9.666;2022-08-30T05:11:14;11.00;99.90
21580;DHT22;10951;59.656;9.666;2022-08-30T05:13:41;11.10;99.90
21580;DHT22;10951;59.656;9.666;2022-08-30T05:16:09;11.10;99.90
21580;DHT22;10951;59.656;9.666;2022-08-30T05:18:36;11.10;99.90
21580;DHT22;10951;59.656;9.666;2022-08-30T05:21:08;11.10;99.90
21580;DHT22;10951;59.656;9.666;2022-08-30T05:23:36;11.20;99.90
21580;DHT22;10951;59.656;9.666;2022-08-30T05:26:10;11.20;99.90
21580;DHT22;10951;59.656;9.666;2022-08-30T05:28:38;11.20;99.90
21580;DHT22;10951;59.656;9.666;2022-08-30T05:31:37;11.20;99.90
21580;DHT22;10951;59.656;9.666;2022-08-30T05:34:04;11.30;99.90
21580;DHT22;10951;59.656;9.666;2022-08-30T05:36:33;11.40;99.90
21580;DHT22;10951;59.656;9.666;2022-08-30T05:39:01;11.40;99.80
21580;DHT22;10951;59.656;9.666;2022-08-30T05:41:31;11.50;99.90
21580;DHT22;10951;59.656;9.666;2022-08-30T05:43:59;11.50;99.90
21580;DHT22;10951;59.656;9.666;2022-08-30T05:46:28;11.60;99.70
21580;DHT22;10951;59.656;9.666;2022-08-30T05:49:04;11.60;99.10
21580;DHT22;10951;59.656;9.666;2022-08-30T05:51:33;11.70;98.90
21580;DHT22;10951;59.656;9.666;2022-08-30T05:54:01;11.90;98.70
21580;DHT22;10951;59.656;9.666;2022-08-30T05:56:35;12.00;98.00
21580;DHT22;10951;59.656;9.666;2022-08-30T05:59:04;12.20;97.50
21580;DHT22;10951;59.656;9.666;2022-08-30T06:01:38;12.40;97.10
21580;DHT22;10951;59.656;9.666;2022-08-30T06:04:07;12.50;96.90
21580;DHT22;10951;59.656;9.666;2022-08-30T06:06:36;12.50;96.20
21580;DHT22;10951;59.656;9.666;2022-08-30T06:09:05;12.60;95.90
21580;DHT22;10951;59.656;9.666;2022-08-30T06:11:33;12.60;95.80
21580;DHT22;10951;59.656;9.666;2022-08-30T06:14:01;12.60;96.20
21580;DHT22;10951;59.656;9.666;2022-08-30T06:16:28;12.60;95.40
21580;DHT22;10951;59.656;9.666;2022-08-30T06:18:58;12.60;95.20
21580;DHT22;10951;59.656;9.666;2022-08-30T06:21:31;12.60;95.30
21580;DHT22;10951;59.656;9.666;2022-08-30T06:23:59;12.60;95.50
21580;DHT22;10951;59.656;9.666;2022-08-30T06:26:27;12.70;95.30
21580;DHT22;10951;59.656;9.666;2022-08-30T06:28:56;12.80;95.10
21580;DHT22;10951;59.656;9.666;2022-08-30T06:31:24;12.80;94.80
21580;DHT22;10951;59.656;9.666;2022-08-30T06:33:53;12.80;94.50
21580;DHT22;10951;59.656;9.666;2022-08-30T06:36:23;12.90;94.60
21580;DHT22;10951;59.656;9.666;2022-08-30T06:38:52;13.00;94.30
21580;DHT22;10951;59.656;9.666;2022-08-30T06:41:22;13.00;94.10
21580;DHT22;10951;59.656;9.666;2022-08-30T06:43:49;13.00;94.10
21580;DHT22;10951;59.656;9.666;2022-08-30T06:46:19;13.10;93.90
21580;DHT22;10951;59.656;9.666;2022-08-30T06:48:47;13.10;94.00
21580;DHT22;10951;59.656;9.666;2022-08-30T06:51:17;13.00;93.60
21580;DHT22;10951;59.656;9.666;2022-08-30T06:53:45;13.10;93.90
21580;DHT22;10951;59.656;9.666;2022-08-30T06:56:12;13.20;92.80
21580;DHT22;10951;59.656;9.666;2022-08-30T06:58:43;13.20;92.90
21580;DHT22;10951;59.656;9.666;2022-08-30T07:01:19;13.30;92.60
21580;DHT22;10951;59.656;9.666;2022-08-30T07:03:46;13.30;92.50
21580;DHT22;10951;59.656;9.666;2022-08-30T07:06:14;13.40;92.20
21580;DHT22;10951;59.656;9.666;2022-08-30T07:08:44;13.50;92.30
21580;DHT22;10951;59.656;9.666;2022-08-30T07:11:11;13.60;91.70
21580;DHT22;10951;59.656;9.666;2022-08-30T07:13:38;13.40;91.20
21580;DHT22;10951;59.656;9.666;2022-08-30T07:16:12;13.40;91.40
21580;DHT22;10951;59.656;9.666;2022-08-30T07:18:40;13.40;91.30
21580;DHT22;10951;59.656;9.666;2022-08-30T07:21:36;13.40;91.40
21580;DHT22;10951;59.656;9.666;2022-08-30T07:24:05;13.50;91.30
21580;DHT22;10951;59.656;9.666;2022-08-30T07:26:37;13.50;91.50
21580;DHT22;10951;59.656;9.666;2022-08-30T07:29:05;13.60;90.50
21580;DHT22;10951;59.656;9.666;2022-08-30T07:31:32;13.70;90.40
21580;DHT22;10951;59.656;9.666;2022-08-30T07:34:00;13.80;90.40
21580;DHT22;10951;59.656;9.666;2022-08-30T07:36:27;13.90;90.40
21580;DHT22;10951;59.656;9.666;2022-08-30T07:38:54;14.20;89.90
21580;DHT22;10951;59.656;9.666;2022-08-30T07:41:28;14.50;89.70
21580;DHT22;10951;59.656;9.666;2022-08-30T07:43:56;14.80;90.00
21580;DHT22;10951;59.656;9.666;2022-08-30T07:46:23;15.10;87.40
21580;DHT22;10951;59.656;9.666;2022-08-30T07:48:51;15.40;84.90
21580;DHT22;10951;59.656;9.666;2022-08-30T07:51:22;15.60;82.20
21580;DHT22;10951;59.656;9.666;2022-08-30T07:53:50;15.80;81.00
21580;DHT22;10951;59.656;9.666;2022-08-30T07:56:17;15.90;81.80
21580;DHT22;10951;59.656;9.666;2022-08-30T07:58:44;15.90;78.30
21580;DHT22;10951;59.656;9.666;2022-08-30T08:01:12;16.00;79.70
21580;DHT22;10951;59.656;9.666;2022-08-30T08:03:40;16.00;78.70
21580;DHT22;10951;59.656;9.666;2022-08-30T08:06:10;16.00;78.80
21580;DHT22;10951;59.656;9.666;2022-08-30T08:08:37;15.90;78.80
21580;DHT22;10951;59.656;9.666;2022-08-30T08:11:13;16.00;78.10
21580;DHT22;10951;59.656;9.666;2022-08-30T08:13:43;16.20;78.00
21580;DHT22;10951;59.656;9.666;2022-08-30T08:16:22;16.30;76.80
21580;DHT22;10951;59.656;9.666;2022-08-30T08:18:50;16.20;77.40
21580;DHT22;10951;59.656;9.666;2022-08-30T08:21:17;16.30;77.10
21580;DHT22;10951;59.656;9.666;2022-08-30T08:23:44;16.40;75.60
21580;DHT22;10951;59.656;9.666;2022-08-30T08:26:11;16.50;76.00
21580;DHT22;10951;59.656;9.666;2022-08-30T08:28:39;16.70;75.10
21580;DHT22;10951;59.656;9.666;2022-08-30T08:31:21;16.70;74.00
21580;DHT22;10951;59.656;9.666;2022-08-30T08:33:54;17.00;73.30
21580;DHT22;10951;59.656;9.666;2022-08-30T08:36:21;16.80;71.20
21580;DHT22;10951;59.656;9.666;2022-08-30T08:38:48;16.80;72.40
21580;DHT22;10951;59.656;9.666;2022-08-30T08:49:55;16.70;72.50
21580;DHT22;10951;59.656;9.666;2022-08-30T08:55:21;16.90;71.20
21580;DHT22;10951;59.656;9.666;2022-08-30T08:57:48;16.80;71.10
21580;DHT22;10951;59.656;9.666;2022-08-30T09:00:18;16.90;70.60
21580;DHT22;10951;59.656;9.666;2022-08-30T09:02:51;17.10;71.10
21580;DHT22;10951;59.656;9.666;2022-08-30T09:05:22;17.40;71.10
21580;DHT22;10951;59.656;9.666;2022-08-30T09:07:57;17.80;68.90
21580;DHT22;10951;59.656;9.666;2022-08-30T09:10:25;18.10;68.70
21580;DHT22;10951;59.656;9.666;2022-08-30T09:13:13;18.00;66.10
21580;DHT22;10951;59.656;9.666;2022-08-30T09:15:44;17.80;63.50
21580;DHT22;10951;59.656;9.666;2022-08-30T09:18:13;17.70;63.10
21580;DHT22;10951;59.656;9.666;2022-08-30T09:21:05;17.50;62.50
21580;DHT22;10951;59.656;9.666;2022-08-30T09:23:32;17.00;63.30
21580;DHT22;10951;59.656;9.666;2022-08-30T09:26:08;17.00;65.50
21580;DHT22;10951;59.656;9.666;2022-08-30T09:28:50;16.90;66.30
21580;DHT22;10951;59.656;9.666;2022-08-30T09:31:26;16.90;66.00
21580;DHT22;10951;59.656;9.666;2022-08-30T09:36:26;16.80;64.50
21580;DHT22;10951;59.656;9.666;2022-08-30T09:39:29;16.80;65.30
21580;DHT22;10951;59.656;9.666;2022-08-30T09:44:39;16.50;63.80
21580;DHT22;10951;59.656;9.666;2022-08-30T09:47:36;16.40;64.40
21580;DHT22;10951;59.656;9.666;2022-08-30T09:50:16;16.50;63.70
21580;DHT22;10951;59.656;9.666;2022-08-30T09:53:09;16.50;64.30
21580;DHT22;10951;59.656;9.666;2022-08-30T09:56:06;16.40;64.50
21580;DHT22;10951;59.656;9.666;2022-08-30T10:01:23;16.80;65.10
21580;DHT22;10951;59.656;9.666;2022-08-30T10:12:21;16.70;63.60
21580;DHT22;10951;59.656;9.666;2022-08-30T10:20:54;16.60;62.90
21580;DHT22;10951;59.656;9.666;2022-08-30T10:24:06;16.40;62.40
21580;DHT22;10951;59.656;9.666;2022-08-30T10:29:16;16.70;63.90
21580;DHT22;10951;59.656;9.666;2022-08-30T10:31:46;16.90;63.50
21580;DHT22;10951;59.656;9.666;2022-08-30T10:34:31;17.20;63.50
21580;DHT22;10951;59.656;9.666;2022-08-30T10:37:08;17.50;61.30
21580;DHT22;10951;59.656;9.666;2022-08-30T10:39:57;17.70;62.20
21580;DHT22;10951;59.656;9.666;2022-08-30T10:42:32;18.10;62.30
21580;DHT22;10951;59.656;9.666;2022-08-30T10:45:21;18.40;59.60
21580;DHT22;10951;59.656;9.666;2022-08-30T10:48:04;18.40;59.70
21580;DHT22;10951;59.656;9.666;2022-08-30T10:50:43;18.50;59.40
21580;DHT22;10951;59.656;9.666;2022-08-30T10:55:54;18.60;59.70
21580;DHT22;10951;59.656;9.666;2022-08-30T10:58:24;18.50;59.60
21580;DHT22;10951;59.656;9.666;2022-08-30T11:06:52;18.40;60.50
21580;DHT22;10951;59.656;9.666;2022-08-30T11:12:31;18.50;59.50
21580;DHT22;10951;59.656;9.666;2022-08-30T11:15:10;18.60;60.20
21580;DHT22;10951;59.656;9.666;2022-08-30T11:17:59;18.50;60.60
21580;DHT22;10951;59.656;9.666;2022-08-30T11:20:31;18.60;59.70
21580;DHT22;10951;59.656;9.666;2022-08-30T11:23:33;18.50;59.60
21580;DHT22;10951;59.656;9.666;2022-08-30T11:26:07;18.50;60.50
21580;DHT22;10951;59.656;9.666;2022-08-30T11:31:35;18.20;61.40
21580;DHT22;10951;59.656;9.666;2022-08-30T11:34:02;18.20;61.10
21580;DHT22;10951;59.656;9.666;2022-08-30T11:39:09;18.20;61.70
21580;DHT22;10951;59.656;9.666;2022-08-30T11:41:46;18.10;60.90
21580;DHT22;10951;59.656;9.666;2022-08-30T11:47:00;17.70;61.80
21580;DHT22;10951;59.656;9.666;2022-08-30T11:52:10;17.40;62.80
21580;DHT22;10951;59.656;9.666;2022-08-30T12:10:59;17.70;62.40
21580;DHT22;10951;59.656;9.666;2022-08-30T12:16:17;17.70;63.40
21580;DHT22;10951;59.656;9.666;2022-08-30T12:18:53;17.70;61.50
21580;DHT22;10951;59.656;9.666;2022-08-30T12:21:27;17.70;61.90
21580;DHT22;10951;59.656;9.666;2022-08-30T12:26:55;17.40;61.80
21580;DHT22;10951;59.656;9.666;2022-08-30T12:29:29;17.30;62.80
21580;DHT22;10951;59.656;9.666;2022-08-30T12:32:03;17.20;63.60
21580;DHT22;10951;59.656;9.666;2022-08-30T12:37:07;17.70;63.90
21580;DHT22;10951;59.656;9.666;2022-08-30T12:39:37;18.10;62.70
21580;DHT22;10951;59.656;9.666;2022-08-30T12:42:20;18.20;60.80
21580;DHT22;10951;59.656;9.666;2022-08-30T12:44:50;18.20;62.20
21580;DHT22;10951;59.656;9.666;2022-08-30T12:47:39;18.20;60.90
21580;DHT22;10951;59.656;9.666;2022-08-30T12:50:09;18.40;60.80
21580;DHT22;10951;59.656;9.666;2022-08-30T12:52:47;18.70;60.70
21580;DHT22;10951;59.656;9.666;2022-08-30T12:55:24;18.90;60.10
21580;DHT22;10951;59.656;9.666;2022-08-30T12:58:32;19.20;59.70
21580;DHT22;10951;59.656;9.666;2022-08-30T13:01:10;19.00;59.10
21580;DHT22;10951;59.656;9.666;2022-08-30T13:03:37;18.60;58.90
21580;DHT22;10951;59.656;9.666;2022-08-30T13:06:05;18.10;60.30
21580;DHT22;10951;59.656;9.666;2022-08-30T13:11:23;17.80;62.70
21580;DHT22;10951;59.656;9.666;2022-08-30T13:16:45;18.20;60.40
21580;DHT22;10951;59.656;9.666;2022-08-30T13:19:38;18.30;61.00
21580;DHT22;10951;59.656;9.666;2022-08-30T13:22:30;18.40;60.30
21580;DHT22;10951;59.656;9.666;2022-08-30T13:24:58;18.60;60.30
21580;DHT22;10951;59.656;9.666;2022-08-30T13:27:25;18.80;60.00
21580;DHT22;10951;59.656;9.666;2022-08-30T13:29:53;18.90;59.40
21580;DHT22;10951;59.656;9.666;2022-08-30T13:32:20;19.00;58.60
21580;DHT22;10951;59.656;9.666;2022-08-30T13:34:47;18.90;58.90
21580;DHT22;10951;59.656;9.666;2022-08-30T13:37:18;18.70;58.80
21580;DHT22;10951;59.656;9.666;2022-08-30T13:40:06;18.60;59.40
21580;DHT22;10951;59.656;9.666;2022-08-30T13:42:35;18.60;60.70
21580;DHT22;10951;59.656;9.666;2022-08-30T13:45:01;18.90;59.50
21580;DHT22;10951;59.656;9.666;2022-08-30T13:47:29;18.90;58.00
21580;DHT22;10951;59.656;9.666;2022-08-30T13:49:59;18.70;58.80
21580;DHT22;10951;59.656;9.666;2022-08-30T13:52:26;18.70;58.50
21580;DHT22;10951;59.656;9.666;2022-08-30T13:54:55;18.80;59.20
21580;DHT22;10951;59.656;9.666;2022-08-30T13:57:26;18.90;58.90
21580;DHT22;10951;59.656;9.666;2022-08-30T14:00:16;19.00;59.00
21580;DHT22;10951;59.656;9.666;2022-08-30T14:02:46;19.30;59.20
21580;DHT22;10951;59.656;9.666;2022-08-30T14:05:32;19.60;58.00
21580;DHT22;10951;59.656;9.666;2022-08-30T14:08:23;19.60;57.30
21580;DHT22;10951;59.656;9.666;2022-08-30T14:11:10;19.60;56.30
21580;DHT22;10951;59.656;9.666;2022-08-30T14:13:39;19.50;56.40
21580;DHT22;10951;59.656;9.666;2022-08-30T14:16:29;19.50;56.70
21580;DHT22;10951;59.656;9.666;2022-08-30T14:18:57;19.40;56.90
21580;DHT22;10951;59.656;9.666;2022-08-30T14:21:26;19.40;57.00
21580;DHT22;10951;59.656;9.666;2022-08-30T14:23:54;19.20;56.70
21580;DHT22;10951;59.656;9.666;2022-08-30T14:26:26;19.10;57.00
21580;DHT22;10951;59.656;9.666;2022-08-30T14:29:04;19.10;57.80
21580;DHT22;10951;59.656;9.666;2022-08-30T14:31:36;19.30;58.10
21580;DHT22;10951;59.656;9.666;2022-08-30T14:34:04;19.40;56.80
21580;DHT22;10951;59.656;9.666;2022-08-30T14:36:33;19.10;56.90
21580;DHT22;10951;59.656;9.666;2022-08-30T14:39:03;18.90;57.40
21580;DHT22;10951;59.656;9.666;2022-08-30T14:41:40;18.60;58.10
21580;DHT22;10951;59.656;9.666;2022-08-30T14:44:10;18.30;58.60
21580;DHT22;10951;59.656;9.666;2022-08-30T14:46:38;18.20;59.20
21580;DHT22;10951;59.656;9.666;2022-08-30T14:49:06;18.10;59.00
21580;DHT22;10951;59.656;9.666;2022-08-30T14:51:35;18.00;59.40
21580;DHT22;10951;59.656;9.666;2022-08-30T14:54:03;17.80;59.30
21580;DHT22;10951;59.656;9.666;2022-08-30T14:56:30;17.70;59.50
21580;DHT22;10951;59.656;9.666;2022-08-30T14:58:57;17.50;59.70
21580;DHT22;10951;59.656;9.666;2022-08-30T15:01:27;17.50;60.20
21580;DHT22;10951;59.656;9.666;2022-08-30T15:03:55;17.60;60.70
21580;DHT22;10951;59.656;9.666;2022-08-30T15:06:24;17.70;60.30
21580;DHT22;10951;59.656;9.666;2022-08-30T15:08:53;17.70;60.20
21580;DHT22;10951;59.656;9.666;2022-08-30T15:11:20;17.60;60.30
21580;DHT22;10951;59.656;9.666;2022-08-30T15:13:48;17.70;60.10
21580;DHT22;10951;59.656;9.666;2022-08-30T15:18:50;17.60;60.80
21580;DHT22;10951;59.656;9.666;2022-08-30T15:21:23;17.60;60.70
21580;DHT22;10951;59.656;9.666;2022-08-30T15:23:51;17.50;60.80
21580;DHT22;10951;59.656;9.666;2022-08-30T15:26:19;17.40;61.50
21580;DHT22;10951;59.656;9.666;2022-08-30T15:28:46;17.40;60.60
21580;DHT22;10951;59.656;9.666;2022-08-30T15:31:14;17.40;60.80
21580;DHT22;10951;59.656;9.666;2022-08-30T15:33:41;17.30;61.50
21580;DHT22;10951;59.656;9.666;2022-08-30T15:36:10;17.30;61.60
21580;DHT22;10951;59.656;9.666;2022-08-30T15:38:38;17.30;61.50
21580;DHT22;10951;59.656;9.666;2022-08-30T15:41:08;17.30;61.80
21580;DHT22;10951;59.656;9.666;2022-08-30T15:43:36;17.40;61.60
21580;DHT22;10951;59.656;9.666;2022-08-30T15:48:45;17.50;60.90
21580;DHT22;10951;59.656;9.666;2022-08-30T15:51:13;17.70;60.90
21580;DHT22;10951;59.656;9.666;2022-08-30T15:53:43;17.80;60.90
21580;DHT22;10951;59.656;9.666;2022-08-30T15:56:11;18.00;61.00
21580;DHT22;10951;59.656;9.666;2022-08-30T15:58:38;18.10;60.50
21580;DHT22;10951;59.656;9.666;2022-08-30T16:01:07;18.10;59.70
21580;DHT22;10951;59.656;9.666;2022-08-30T16:03:35;18.10;59.60
21580;DHT22;10951;59.656;9.666;2022-08-30T16:06:03;17.90;59.80
21580;DHT22;10951;59.656;9.666;2022-08-30T16:08:30;17.80;60.00
21580;DHT22;10951;59.656;9.666;2022-08-30T16:10:57;17.70;60.40
21580;DHT22;10951;59.656;9.666;2022-08-30T16:13:24;17.70;60.40
21580;DHT22;10951;59.656;9.666;2022-08-30T16:15:51;17.70;60.50
21580;DHT22;10951;59.656;9.666;2022-08-30T16:18:18;17.60;60.10
21580;DHT22;10951;59.656;9.666;2022-08-30T16:20:45;17.40;60.10
21580;DHT22;10951;59.656;9.666;2022-08-30T16:23:12;17.20;60.40
21580;DHT22;10951;59.656;9.666;2022-08-30T16:25:39;17.10;61.20
21580;DHT22;10951;59.656;9.666;2022-08-30T16:28:07;17.10;61.20
21580;DHT22;10951;59.656;9.666;2022-08-30T16:30:35;17.20;60.70
21580;DHT22;10951;59.656;9.666;2022-08-30T16:33:02;17.20;61.00
21580;DHT22;10951;59.656;9.666;2022-08-30T16:35:29;17.40;61.00
21580;DHT22;10951;59.656;9.666;2022-08-30T16:37:56;17.40;60.10
21580;DHT22;10951;59.656;9.666;2022-08-30T16:40:23;17.50;59.70
21580;DHT22;10951;59.656;9.666;2022-08-30T16:42:50;17.50;59.60
21580;DHT22;10951;59.656;9.666;2022-08-30T16:45:17;17.50;59.30
21580;DHT22;10951;59.656;9.666;2022-08-30T16:47:44;17.50;59.50
21580;DHT22;10951;59.656;9.666;2022-08-30T16:50:12;17.50;60.00
21580;DHT22;10951;59.656;9.666;2022-08-30T16:52:43;17.50;60.00
21580;DHT22;10951;59.656;9.666;2022-08-30T16:55:10;17.60;60.10
21580;DHT22;10951;59.656;9.666;2022-08-30T16:57:38;17.70;59.70
21580;DHT22;10951;59.656;9.666;2022-08-30T17:00:06;17.70;59.80
21580;DHT22;10951;59.656;9.666;2022-08-30T17:02:40;17.80;59.40
21580;DHT22;10951;59.656;9.666;2022-08-30T17:05:20;17.70;59.50
21580;DHT22;10951;59.656;9.666;2022-08-30T17:07:47;17.60;59.60
21580;DHT22;10951;59.656;9.666;2022-08-30T17:10:14;17.50;60.40
21580;DHT22;10951;59.656;9.666;2022-08-30T17:12:49;17.50;60.00
21580;DHT22;10951;59.656;9.666;2022-08-30T17:15:16;17.40;60.10
21580;DHT22;10951;59.656;9.666;2022-08-30T17:17:46;17.30;60.40
21580;DHT22;10951;59.656;9.666;2022-08-30T17:20:14;17.20;61.10
21580;DHT22;10951;59.656;9.666;2022-08-30T17:22:41;17.10;61.20
21580;DHT22;10951;59.656;9.666;2022-08-30T17:25:11;17.00;61.30
21580;DHT22;10951;59.656;9.666;2022-08-30T17:27:39;17.00;61.70
21580;DHT22;10951;59.656;9.666;2022-08-30T17:30:07;17.00;62.00
21580;DHT22;10951;59.656;9.666;2022-08-30T17:32:35;17.00;61.00